Time;durP1;ratioP1;P1;durP2;ratioP2;P2;SDS_P1;SDS_P2;PMS_P1;PMS_P2;Temp;Humidity;BMP_temperature;BMP_pressure;BME280_temperature;BME280_humidity;BME280_pressure;Samples;Min_cycle;Max_cycle;Signal;HPM_P1;HPM_P2
2021/03/23 00:02:27;;;;;;;8.18;3.42;;;5.90;87.00;;;;;;5006104;28;20061;-46
2021/03/23 00:04:55;;;;;;;6.07;3.97;;;5.90;86.60;;;;;;5005893;28;20092;-44
2021/03/23 00:07:24;;;;;;;6.75;3.40;;;5.90;86.50;;;;;;5010121;28;20057;-45
2021/03/23 00:09:55;;;;;;;6.93;3.20;;;5.90;86.50;;;;;;5007622;28;20065;-45
2021/03/23 00:12:28;;;;;;;6.13;3.40;;;5.90;86.70;;;;;;5008281;28;20080;-46
2021/03/23 00:14:56;;;;;;;5.43;3.42;;;5.90;87.10;;;;;;5012891;28;20540;-45
2021/03/23 00:17:22;;;;;;;5.20;3.10;;;5.90;87.10;;;;;;5007874;28;20104;-44
2021/03/23 00:19:52;;;;;;;6.38;3.33;;;5.90;87.10;;;;;;5009645;28;20057;-44
2021/03/23 00:22:18;;;;;;;6.35;3.88;;;5.90;87.50;;;;;;5008954;28;20066;-45
2021/03/23 00:24:53;;;;;;;7.63;3.50;;;5.90;87.50;;;;;;5009182;28;20050;-46
2021/03/23 00:27:22;;;;;;;5.68;3.55;;;5.90;88.20;;;;;;5009553;28;20057;-43
2021/03/23 00:29:48;;;;;;;9.73;3.72;;;5.90;87.90;;;;;;5008847;28;20119;-45
2021/03/23 00:32:18;;;;;;;7.10;3.72;;;5.90;87.40;;;;;;5008641;28;20057;-45
2021/03/23 00:34:44;;;;;;;10.23;3.22;;;5.90;87.50;;;;;;5009587;28;20038;-46
2021/03/23 00:37:21;;;;;;;7.55;3.60;;;5.90;87.30;;;;;;5008695;28;20050;-44
2021/03/23 00:39:47;;;;;;;8.93;3.80;;;5.90;87.10;;;;;;5009529;28;20104;-43
2021/03/23 00:42:18;;;;;;;6.03;3.15;;;5.90;87.00;;;;;;5013702;28;20089;-44
2021/03/23 00:44:52;;;;;;;5.30;3.07;;;5.90;87.10;;;;;;5008222;28;20062;-45
2021/03/23 00:47:23;;;;;;;5.95;3.30;;;5.90;87.00;;;;;;5008181;28;20188;-44
2021/03/23 00:49:49;;;;;;;7.00;3.70;;;5.90;87.20;;;;;;5009438;28;20119;-46
2021/03/23 00:52:21;;;;;;;7.80;3.50;;;5.90;87.30;;;;;;5008596;28;20050;-45
2021/03/23 00:54:51;;;;;;;8.85;3.67;;;5.90;87.50;;;;;;5006418;28;20061;-44
2021/03/23 00:57:17;;;;;;;5.38;3.05;;;5.90;87.60;;;;;;5009067;28;20057;-44
2021/03/23 00:59:49;;;;;;;7.53;3.10;;;5.90;87.40;;;;;;5008557;28;20057;-44
2021/03/23 01:02:17;;;;;;;4.75;3.72;;;5.90;87.80;;;;;;5008753;28;20054;-45
2021/03/23 01:04:44;;;;;;;7.07;3.33;;;5.90;87.30;;;;;;5007745;28;20159;-43
2021/03/23 01:07:12;;;;;;;5.15;3.20;;;5.90;87.10;;;;;;5008745;28;20054;-44
2021/03/23 01:09:39;;;;;;;4.43;2.58;;;5.90;87.30;;;;;;5008977;28;20500;-45
2021/03/23 01:12:07;;;;;;;6.28;3.25;;;5.90;87.30;;;;;;5008654;28;20050;-46
2021/03/23 01:14:33;;;;;;;5.45;3.05;;;5.90;87.10;;;;;;5009337;28;20502;-44
2021/03/23 01:17:02;;;;;;;4.90;3.13;;;5.90;87.10;;;;;;5007582;28;20243;-44
2021/03/23 01:19:28;;;;;;;6.10;3.50;;;5.90;88.20;;;;;;5011213;28;20068;-44
2021/03/23 01:21:57;;;;;;;7.38;3.60;;;5.90;88.10;;;;;;5007878;28;20507;-44
2021/03/23 01:24:22;;;;;;;9.82;4.15;;;5.90;87.70;;;;;;5008277;28;20046;-44
2021/03/23 01:26:50;;;;;;;7.38;4.30;;;5.90;88.80;;;;;;5008493;28;20619;-44
2021/03/23 01:29:19;;;;;;;10.10;4.40;;;5.90;88.20;;;;;;5008380;28;20561;-44
2021/03/23 01:31:46;;;;;;;7.60;4.10;;;5.90;88.10;;;;;;5007653;28;20052;-45
2021/03/23 01:34:11;;;;;;;11.82;5.40;;;5.90;88.10;;;;;;5008206;28;20057;-45
2021/03/23 01:36:40;;;;;;;8.30;4.97;;;5.90;88.40;;;;;;5007760;28;20049;-44
2021/03/23 01:39:11;;;;;;;9.00;4.75;;;5.90;88.50;;;;;;5008058;28;20068;-45
2021/03/23 01:41:39;;;;;;;7.30;4.80;;;5.90;88.60;;;;;;5008113;28;20065;-44
2021/03/23 01:44:05;;;;;;;8.40;4.93;;;5.80;88.50;;;;;;5005864;28;20058;-43
2021/03/23 01:46:34;;;;;;;9.98;4.95;;;5.90;88.80;;;;;;5006968;28;20046;-44
2021/03/23 01:49:02;;;;;;;9.90;6.10;;;5.80;88.60;;;;;;5007530;28;20122;-44
2021/03/23 01:51:28;;;;;;;8.88;5.82;;;5.80;88.80;;;;;;4990381;28;20060;-45
2021/03/23 01:54:00;;;;;;;9.70;5.22;;;5.80;89.10;;;;;;5007640;28;20045;-46
2021/03/23 01:56:26;;;;;;;8.20;5.00;;;5.80;88.90;;;;;;5007155;28;20501;-47
2021/03/23 01:58:54;;;;;;;10.95;5.72;;;5.80;89.20;;;;;;4986656;28;20054;-44
2021/03/23 02:01:22;;;;;;;7.18;5.20;;;5.80;89.60;;;;;;5013444;28;20072;-46
2021/03/23 02:03:49;;;;;;;8.52;5.20;;;5.90;89.70;;;;;;5010780;28;20136;-46
2021/03/23 02:06:27;;;;;;;7.97;5.28;;;5.80;89.30;;;;;;5006135;28;20541;-44
2021/03/23 02:08:57;;;;;;;10.02;5.40;;;5.80;90.10;;;;;;5006888;28;20054;-44
2021/03/23 02:11:24;;;;;;;7.82;5.43;;;5.80;89.70;;;;;;5005243;28;20050;-44
2021/03/23 02:13:52;;;;;;;5.97;4.85;;;5.80;89.80;;;;;;4988041;28;20506;-44
2021/03/23 02:16:17;;;;;;;6.85;4.82;;;5.80;89.80;;;;;;5006803;28;20131;-44
2021/03/23 02:18:43;;;;;;;8.48;5.82;;;5.80;90.00;;;;;;5007636;28;20050;-43
2021/03/23 02:21:13;;;;;;;9.68;5.90;;;5.80;89.90;;;;;;5006860;28;20096;-44
2021/03/23 02:23:52;;;;;;;8.60;5.50;;;5.80;89.80;;;;;;5007003;28;20077;-45
2021/03/23 02:26:28;;;;;;;7.32;4.88;;;5.80;90.00;;;;;;5008221;28;20052;-45
2021/03/23 02:28:57;;;;;;;10.32;5.18;;;5.70;90.00;;;;;;5006626;28;20041;-45
2021/03/23 02:31:34;;;;;;;6.95;5.05;;;5.70;90.00;;;;;;5007310;28;20046;-44
2021/03/23 02:34:09;;;;;;;8.00;5.35;;;5.70;90.00;;;;;;5007901;28;20052;-46
2021/03/23 02:36:38;;;;;;;10.00;5.82;;;5.60;90.00;;;;;;5006625;28;20081;-43
2021/03/23 02:39:09;;;;;;;12.68;6.53;;;5.60;90.40;;;;;;5007545;28;20057;-44
2021/03/23 02:41:38;;;;;;;9.80;5.78;;;5.50;90.40;;;;;;5007974;28;20054;-44
2021/03/23 02:44:07;;;;;;;10.18;6.10;;;5.50;90.40;;;;;;5004881;28;20131;-45
2021/03/23 02:46:36;;;;;;;11.35;5.97;;;5.40;90.50;;;;;;5014139;28;20042;-43
2021/03/23 02:49:03;;;;;;;11.15;5.57;;;5.30;90.40;;;;;;5007410;28;20054;-44
2021/03/23 02:51:29;;;;;;;12.52;5.95;;;5.20;90.60;;;;;;5007296;28;20205;-44
2021/03/23 02:53:55;;;;;;;8.77;6.07;;;5.10;90.50;;;;;;5007132;28;20057;-44
2021/03/23 02:56:22;;;;;;;10.70;6.22;;;5.10;90.70;;;;;;5007525;28;20089;-43
2021/03/23 02:58:51;;;;;;;9.20;6.32;;;5.00;90.80;;;;;;5006493;28;20706;-44
2021/03/23 03:01:19;;;;;;;8.15;5.53;;;4.90;90.90;;;;;;5004934;28;20049;-43
2021/03/23 03:03:48;;;;;;;11.57;6.03;;;4.80;90.60;;;;;;5006802;28;20053;-45
2021/03/23 03:06:22;;;;;;;10.02;5.85;;;4.80;90.80;;;;;;5013054;28;20120;-44
2021/03/23 03:08:48;;;;;;;10.18;6.18;;;4.70;90.70;;;;;;5007483;28;20058;-47
2021/03/23 03:11:19;;;;;;;9.45;6.90;;;4.70;90.70;;;;;;5006428;28;20045;-45
2021/03/23 03:13:47;;;;;;;12.10;7.65;;;4.70;90.90;;;;;;5007162;28;20053;-45
2021/03/23 03:16:16;;;;;;;10.15;6.63;;;4.60;90.80;;;;;;5007116;28;20053;-44
2021/03/23 03:18:48;;;;;;;13.63;7.57;;;4.60;90.80;;;;;;5008406;28;20053;-45
2021/03/23 03:21:14;;;;;;;11.93;8.00;;;4.60;91.10;;;;;;5005111;28;20049;-42
2021/03/23 03:23:42;;;;;;;13.10;7.25;;;4.50;91.00;;;;;;5007389;28;20135;-47
2021/03/23 03:26:13;;;;;;;10.60;7.28;;;4.40;90.90;;;;;;5006552;28;20107;-43
2021/03/23 03:28:39;;;;;;;11.93;7.97;;;4.30;90.80;;;;;;5003523;28;20050;-42
2021/03/23 03:31:06;;;;;;;13.65;8.13;;;4.30;90.90;;;;;;5006822;28;20046;-47
2021/03/23 03:33:34;;;;;;;14.52;8.63;;;4.30;91.20;;;;;;5007065;28;20072;-44
2021/03/23 03:36:03;;;;;;;15.43;8.82;;;4.30;91.40;;;;;;5004128;28;20771;-45
2021/03/23 03:38:29;;;;;;;14.68;9.93;;;4.20;91.80;;;;;;5006236;28;20160;-45
2021/03/23 03:41:01;;;;;;;15.27;9.40;;;4.10;91.60;;;;;;5005561;28;20046;-46
2021/03/23 03:43:31;;;;;;;15.88;9.48;;;4.10;91.60;;;;;;5004438;28;20050;-46
2021/03/23 03:45:57;;;;;;;16.65;10.27;;;4.10;91.40;;;;;;5006135;28;20076;-44
2021/03/23 03:48:23;;;;;;;17.27;10.60;;;4.10;91.50;;;;;;5006167;28;20054;-44
2021/03/23 03:50:49;;;;;;;14.88;11.15;;;4.10;91.40;;;;;;5006793;28;20065;-44
2021/03/23 03:53:15;;;;;;;18.20;12.38;;;4.00;91.50;;;;;;5006896;28;20184;-44
2021/03/23 03:55:53;;;;;;;20.10;12.35;;;4.00;91.50;;;;;;5006225;28;20132;-47
2021/03/23 03:58:20;;;;;;;17.85;12.43;;;3.90;91.80;;;;;;5000199;28;20164;-45
2021/03/23 04:00:45;;;;;;;19.88;13.98;;;3.90;91.70;;;;;;5007580;28;20175;-44
2021/03/23 04:03:18;;;;;;;21.42;15.05;;;3.90;91.70;;;;;;5006700;28;20487;-43
2021/03/23 04:05:47;;;;;;;;;;;4.00;91.60;;;;;;5006296;28;20038;-43
2021/03/23 04:08:17;;;;;;;22.48;15.15;;;4.10;91.60;;;;;;5005877;28;19949;-43
2021/03/23 04:10:51;;;;;;;19.92;14.18;;;4.20;91.70;;;;;;4988565;28;20046;-43
2021/03/23 04:13:18;;;;;;;20.52;13.68;;;4.30;91.60;;;;;;5012336;28;20383;-43
2021/03/23 04:15:51;;;;;;;18.80;13.48;;;4.50;91.60;;;;;;5006182;28;20046;-43
2021/03/23 04:18:24;;;;;;;18.20;13.98;;;4.60;91.60;;;;;;5005445;28;20086;-44
2021/03/23 04:20:52;;;;;;;24.15;13.50;;;4.70;91.70;;;;;;5008116;28;20077;-43
2021/03/23 04:23:29;;;;;;;19.15;13.27;;;4.70;91.50;;;;;;5005721;28;20072;-44
2021/03/23 04:25:59;;;;;;;22.27;14.38;;;4.80;91.50;;;;;;5005294;28;20049;-43
2021/03/23 04:28:27;;;;;;;20.48;13.65;;;4.80;91.30;;;;;;5005577;28;20049;-45
2021/03/23 04:31:00;;;;;;;18.40;13.30;;;4.90;91.30;;;;;;5006309;28;20061;-43
2021/03/23 04:33:27;;;;;;;21.37;13.50;;;4.90;91.20;;;;;;5007091;28;20702;-45
2021/03/23 04:36:03;;;;;;;22.67;14.50;;;4.90;91.20;;;;;;5008553;28;20332;-44
2021/03/23 04:38:34;;;;;;;18.83;14.30;;;5.00;91.10;;;;;;5005413;28;20054;-43
2021/03/23 04:41:04;;;;;;;19.23;14.18;;;5.00;91.10;;;;;;5005551;28;20525;-45
2021/03/23 04:43:41;;;;;;;22.50;14.13;;;5.00;91.00;;;;;;5008810;28;20057;-44
2021/03/23 04:46:11;;;;;;;20.15;13.45;;;5.00;90.80;;;;;;5004820;28;20061;-43
2021/03/23 04:48:40;;;;;;;18.58;13.05;;;5.00;90.70;;;;;;5004989;28;20050;-44
2021/03/23 04:51:13;;;;;;;21.70;14.02;;;5.00;90.60;;;;;;5009230;28;20494;-44
2021/03/23 04:53:42;;;;;;;23.35;15.13;;;5.10;90.70;;;;;;5007692;28;20060;-45
2021/03/23 04:56:24;;;;;;;22.10;13.95;;;5.10;90.70;;;;;;5008916;28;20058;-44
2021/03/23 04:58:50;;;;;;;19.92;14.20;;;5.10;90.70;;;;;;5007655;28;20185;-43
2021/03/23 05:01:17;;;;;;;21.33;13.90;;;5.10;90.70;;;;;;5008987;28;20141;-44
2021/03/23 05:03:43;;;;;;;20.33;13.45;;;5.10;90.70;;;;;;5010183;28;20049;-46
2021/03/23 05:06:12;;;;;;;20.27;14.07;;;5.10;90.60;;;;;;5009394;28;20054;-44
2021/03/23 05:08:42;;;;;;;20.40;12.60;;;5.10;90.60;;;;;;5014380;28;20050;-44
2021/03/23 05:11:10;;;;;;;16.55;12.40;;;5.10;90.50;;;;;;5009528;28;20104;-43
2021/03/23 05:13:38;;;;;;;19.92;13.18;;;5.10;90.60;;;;;;5008854;28;20046;-45
2021/03/23 05:16:09;;;;;;;23.55;14.02;;;5.10;90.60;;;;;;5009183;28;20054;-44
2021/03/23 05:18:40;;;;;;;15.48;11.45;;;5.20;90.50;;;;;;5008988;28;20096;-44
2021/03/23 05:21:09;;;;;;;21.40;13.88;;;5.10;90.60;;;;;;5008618;28;20056;-45
2021/03/23 05:23:37;;;;;;;21.48;14.20;;;5.10;90.60;;;;;;4988664;28;20136;-43
2021/03/23 05:26:07;;;;;;;17.83;11.20;;;5.10;90.70;;;;;;5015869;28;20070;-43
2021/03/23 05:28:36;;;;;;;17.48;11.90;;;5.10;90.40;;;;;;5008875;28;20050;-45
2021/03/23 05:31:09;;;;;;;19.20;12.95;;;5.10;90.50;;;;;;5007954;28;20052;-44
2021/03/23 05:33:37;;;;;;;18.00;11.82;;;5.10;90.40;;;;;;5008270;28;20073;-45
2021/03/23 05:36:11;;;;;;;17.73;12.45;;;5.20;90.40;;;;;;5008683;28;20045;-44
2021/03/23 05:38:40;;;;;;;19.05;12.63;;;5.20;90.30;;;;;;5009042;28;20065;-44
2021/03/23 05:41:13;;;;;;;22.13;11.93;;;5.20;90.30;;;;;;5008941;28;20113;-47
2021/03/23 05:43:43;;;;;;;17.75;11.93;;;5.20;90.20;;;;;;5008661;28;20056;-44
2021/03/23 05:46:20;;;;;;;21.10;12.30;;;5.20;90.10;;;;;;5006733;28;20054;-44
2021/03/23 05:49:06;;;;;;;19.40;11.90;;;5.20;90.20;;;;;;5008074;28;20061;-46
2021/03/23 05:51:41;;;;;;;19.02;12.43;;;5.20;90.30;;;;;;5008384;28;20049;-45
2021/03/23 05:54:20;;;;;;;18.35;11.63;;;5.20;90.10;;;;;;5008500;28;20056;-46
2021/03/23 05:56:53;;;;;;;19.10;11.98;;;5.20;90.10;;;;;;5008708;28;20133;-45
2021/03/23 05:59:25;;;;;;;18.38;11.38;;;5.20;90.10;;;;;;4991496;28;20049;-44
2021/03/23 06:01:58;;;;;;;20.90;11.73;;;5.20;90.20;;;;;;5007976;28;20573;-45
2021/03/23 06:04:42;;;;;;;20.55;13.20;;;5.20;90.40;;;;;;5005958;28;20183;-44
2021/03/23 06:07:13;;;;;;;16.98;11.60;;;5.10;90.30;;;;;;5009332;28;20046;-49
2021/03/23 06:09:40;;;;;;;18.85;11.77;;;5.10;90.50;;;;;;5010585;28;20486;-45
2021/03/23 06:12:23;;;;;;;19.63;12.50;;;5.00;90.50;;;;;;5005972;28;20045;-50
2021/03/23 06:15:02;;;;;;;19.33;11.98;;;5.10;90.40;;;;;;5004839;28;20053;-47
2021/03/23 06:17:44;;;;;;;18.63;12.48;;;5.30;90.40;;;;;;5005944;28;20709;-47
2021/03/23 06:20:31;;;;;;;16.08;12.75;;;5.30;90.30;;;;;;5007313;28;20516;-46
2021/03/23 06:23:09;;;;;;;21.20;12.45;;;5.30;90.10;;;;;;5007546;28;20058;-48
2021/03/23 06:25:49;;;;;;;23.17;13.20;;;5.40;90.10;;;;;;5007807;28;20103;-48
2021/03/23 06:28:55;;;;;;;22.90;12.55;;;5.40;90.00;;;;;;5002477;28;20072;-50
2021/03/23 06:31:46;;;;;;;19.80;13.25;;;5.50;89.90;;;;;;5006026;28;20140;-51
2021/03/23 06:34:20;;;;;;;17.90;12.77;;;5.50;89.90;;;;;;5004341;28;20075;-46
2021/03/23 06:36:49;;;;;;;21.38;13.98;;;5.60;89.60;;;;;;4988155;28;20402;-50
2021/03/23 06:39:18;;;;;;;21.80;13.00;;;5.70;89.60;;;;;;5007649;28;20050;-50
2021/03/23 06:42:02;;;;;;;20.83;13.32;;;5.70;89.30;;;;;;5007423;28;20054;-48
2021/03/23 06:44:36;;;;;;;18.90;13.43;;;5.80;89.30;;;;;;5007300;28;20049;-49
2021/03/23 06:47:04;;;;;;;21.15;14.00;;;5.90;89.00;;;;;;4989588;28;20057;-49
2021/03/23 06:49:36;;;;;;;28.15;15.57;;;6.00;88.60;;;;;;5012122;28;20052;-51
2021/03/23 06:52:22;;;;;;;21.42;14.23;;;6.00;87.30;;;;;;4999046;28;20054;-48
2021/03/23 06:55:26;;;;;;;21.33;14.88;;;6.10;87.60;;;;;;5007807;28;20060;-47
2021/03/23 06:57:52;;;;;;;21.42;14.13;;;6.20;87.20;;;;;;5006779;28;20422;-49
2021/03/23 07:00:26;;;;;;;25.42;14.93;;;6.20;87.00;;;;;;5006543;28;20050;-47
2021/03/23 07:03:24;;;;;;;20.50;13.25;;;6.30;87.00;;;;;;5006824;28;20060;-47
2021/03/23 07:05:57;;;;;;;18.83;14.77;;;6.30;86.50;;;;;;5007250;28;20136;-47
2021/03/23 07:08:29;;;;;;;20.75;15.48;;;6.30;86.50;;;;;;5004235;28;20046;-46
2021/03/23 07:10:58;;;;;;;23.00;15.27;;;6.30;86.40;;;;;;5006809;28;20522;-46
2021/03/23 07:13:26;;;;;;;19.73;14.18;;;6.30;86.70;;;;;;5007229;28;20052;-49
2021/03/23 07:16:10;;;;;;;22.45;16.55;;;6.40;86.70;;;;;;5006697;28;20084;-52
2021/03/23 07:18:44;;;;;;;23.67;15.40;;;6.40;86.60;;;;;;5007710;28;20060;-51
2021/03/23 07:21:38;;;;;;;24.08;15.68;;;6.50;86.90;;;;;;5007333;28;20057;-47
2021/03/23 07:24:09;;;;;;;26.75;16.75;;;6.50;87.00;;;;;;5002411;28;20571;-49
2021/03/23 07:26:36;;;;;;;26.10;16.33;;;6.50;87.00;;;;;;5007240;28;20052;-48
2021/03/23 07:29:11;;;;;;;34.53;21.45;;;6.50;86.80;;;;;;5006923;28;20176;-47
2021/03/23 07:31:53;;;;;;;29.67;19.02;;;6.60;86.50;;;;;;5006902;28;20054;-50
2021/03/23 07:34:30;;;;;;;31.17;20.52;;;6.70;86.90;;;;;;5007840;28;20486;-48
2021/03/23 07:37:19;;;;;;;32.35;21.90;;;6.70;86.30;;;;;;5008112;28;20104;-50
2021/03/23 07:39:53;;;;;;;27.38;18.10;;;6.80;86.40;;;;;;5007814;28;20058;-52
2021/03/23 07:42:32;;;;;;;31.77;20.02;;;6.80;86.20;;;;;;5007452;28;20058;-49
2021/03/23 07:45:06;;;;;;;25.75;19.35;;;6.90;86.40;;;;;;5018895;28;20467;-51
2021/03/23 07:48:05;;;;;;;54.40;40.05;;;7.00;86.20;;;;;;5002714;28;20608;-48
2021/03/23 07:50:41;;;;;;;41.97;30.58;;;7.20;85.20;;;;;;5006852;28;20054;-51
2021/03/23 07:53:26;;;;;;;38.00;26.88;;;7.30;85.80;;;;;;5005503;28;20054;-52
2021/03/23 07:56:00;;;;;;;32.47;22.33;;;7.40;84.80;;;;;;5008242;28;20050;-47
2021/03/23 07:58:41;;;;;;;31.35;22.20;;;7.40;84.30;;;;;;5007070;28;20069;-49
2021/03/23 08:01:21;;;;;;;31.40;22.80;;;7.50;84.30;;;;;;5006757;28;20046;-50
2021/03/23 08:03:49;;;;;;;27.73;22.30;;;7.60;83.90;;;;;;5006608;28;20050;-51
2021/03/23 08:06:24;;;;;;;35.75;24.77;;;7.80;84.50;;;;;;5007008;28;20046;-51
2021/03/23 08:09:11;;;;;;;36.47;24.10;;;7.80;82.90;;;;;;5005036;28;20050;-53
2021/03/23 08:12:12;;;;;;;34.22;26.73;;;7.90;83.10;;;;;;5017437;28;20042;-49
2021/03/23 08:14:57;;;;;;;41.10;28.52;;;8.00;83.70;;;;;;5005087;28;20057;-51
2021/03/23 08:17:41;;;;;;;49.33;36.55;;;7.90;83.20;;;;;;5005968;28;20046;-47
2021/03/23 08:20:22;;;;;;;39.28;28.50;;;8.00;83.10;;;;;;5001871;28;20058;-51
2021/03/23 08:23:21;;;;;;;45.15;32.92;;;8.20;83.20;;;;;;5004965;28;20054;-48
2021/03/23 08:25:53;;;;;;;44.22;32.22;;;8.30;83.00;;;;;;5005566;28;20065;-49
2021/03/23 08:28:26;;;;;;;41.97;30.13;;;8.30;82.50;;;;;;5010313;28;20042;-49
2021/03/23 08:31:13;;;;;;;43.70;31.02;;;8.50;82.30;;;;;;5004814;28;20037;-49
2021/03/23 08:34:00;;;;;;;44.03;30.55;;;8.60;82.40;;;;;;4998714;28;20068;-55
2021/03/23 08:36:53;;;;;;;42.33;29.60;;;8.80;82.60;;;;;;5011007;28;20054;-52
2021/03/23 08:39:48;;;;;;;41.35;29.00;;;9.00;81.40;;;;;;4998335;28;20072;-54
2021/03/23 08:42:20;;;;;;;51.22;40.22;;;9.10;80.60;;;;;;5011358;28;20391;-50
2021/03/23 08:45:03;;;;;;;59.85;43.35;;;9.10;80.90;;;;;;5010260;28;20100;-47
2021/03/23 08:47:46;;;;;;;43.25;30.05;;;9.10;81.00;;;;;;5011569;28;20141;-48
2021/03/23 08:50:33;;;;;;;38.97;29.80;;;9.10;79.30;;;;;;5000414;28;20046;-49
2021/03/23 08:53:24;;;;;;;40.33;30.08;;;9.10;79.30;;;;;;5012060;28;20049;-48
2021/03/23 08:55:51;;;;;;;35.50;29.67;;;9.20;80.40;;;;;;4925992;29;20060;-46
2021/03/23 08:58:39;;;;;;;38.10;29.20;;;9.10;78.50;;;;;;4920841;29;20082;-50
2021/03/23 09:01:29;;;;;;;40.17;28.73;;;9.20;79.90;;;;;;4928127;29;20722;-46
2021/03/23 09:04:09;;;;;;;43.45;30.73;;;9.20;78.70;;;;;;4921970;29;20145;-50
2021/03/23 09:06:58;;;;;;;38.03;28.88;;;9.40;79.30;;;;;;4921572;29;20139;-46
2021/03/23 09:09:48;;;;;;;40.55;31.50;;;9.70;77.50;;;;;;4922142;29;20128;-47
2021/03/23 09:12:41;;;;;;;41.22;31.80;;;10.20;76.10;;;;;;4907394;29;21326;-50
2021/03/23 09:15:16;;;;;;;36.33;27.73;;;10.50;77.10;;;;;;4923520;29;20147;-47
2021/03/23 09:18:05;;;;;;;36.83;28.83;;;10.10;72.50;;;;;;4918474;29;20078;-54
2021/03/23 09:20:37;;;;;;;31.63;26.52;;;10.00;73.20;;;;;;4921021;29;20055;-49
2021/03/23 09:23:22;;;;;;;29.13;25.95;;;10.10;74.40;;;;;;4928457;29;20047;-48
2021/03/23 09:26:27;;;;;;;34.78;27.17;;;9.80;71.80;;;;;;4924536;29;20048;-45
2021/03/23 09:28:56;;;;;;;31.95;25.77;;;9.70;73.20;;;;;;4871914;29;20061;-46
2021/03/23 09:31:43;;;;;;;34.50;28.73;;;9.70;74.30;;;;;;4871825;29;20053;-58
2021/03/23 09:34:46;;;;;;;36.83;32.10;;;9.80;74.00;;;;;;4920987;29;20040;-45
2021/03/23 09:37:41;;;;;;;32.80;28.55;;;9.90;72.70;;;;;;4919112;29;20136;-45
2021/03/23 09:40:20;;;;;;;34.08;29.45;;;9.80;73.00;;;;;;4917357;29;20063;-44
2021/03/23 09:43:24;;;;;;;30.50;25.80;;;9.90;73.70;;;;;;4921597;29;20056;-56
2021/03/23 09:45:59;;;;;;;32.97;27.77;;;10.00;71.90;;;;;;4910136;29;20494;-50
2021/03/23 09:48:47;;;;;;;32.33;26.90;;;10.20;72.90;;;;;;4912919;29;20054;-52
2021/03/23 09:51:37;;;;;;;30.48;25.85;;;10.20;71.10;;;;;;4906752;29;20523;-48
2021/03/23 09:54:12;;;;;;;;;;;10.20;70.30;;;;;;4912176;29;20048;-59
2021/03/23 09:56:47;;;;;;;34.15;27.80;;;11.00;71.30;;;;;;4909580;29;20273;-57
2021/03/23 09:59:19;;;;;;;36.70;29.73;;;12.10;70.30;;;;;;4915128;29;20059;-58
2021/03/23 10:02:23;;;;;;;33.30;26.90;;;13.40;67.40;;;;;;4909660;29;20146;-49
2021/03/23 10:04:50;;;;;;;30.65;25.90;;;14.70;61.70;;;;;;4914739;28;20056;-51
2021/03/23 10:07:29;;;;;;;29.05;25.00;;;15.40;59.70;;;;;;4988929;28;20049;-52
2021/03/23 10:10:06;;;;;;;31.67;27.13;;;15.40;55.40;;;;;;5005692;28;20081;-50
2021/03/23 10:12:35;;;;;;;32.22;28.65;;;14.00;58.40;;;;;;5012769;28;20049;-51
2021/03/23 10:15:24;;;;;;;30.20;26.92;;;13.90;58.80;;;;;;5006952;28;20054;-49
2021/03/23 10:17:52;;;;;;;28.70;24.83;;;14.70;59.90;;;;;;5005500;28;20097;-49
2021/03/23 10:20:24;;;;;;;29.23;24.25;;;16.00;61.40;;;;;;5004902;28;20513;-46
2021/03/23 10:23:00;;;;;;;27.70;24.05;;;15.90;54.90;;;;;;5008405;28;20057;-47
2021/03/23 10:25:27;;;;;;;27.60;24.45;;;16.60;56.60;;;;;;5007721;28;20479;-49
2021/03/23 10:28:00;;;;;;;27.23;24.30;;;16.70;54.70;;;;;;5006852;28;20081;-47
2021/03/23 10:30:27;;;;;;;28.92;25.90;;;16.80;53.40;;;;;;5003461;28;20438;-48
2021/03/23 10:33:18;;;;;;;33.00;29.55;;;16.70;54.20;;;;;;5001082;28;20054;-52
2021/03/23 10:35:44;;;;;;;27.50;24.92;;;16.70;51.90;;;;;;5004788;28;20514;-50
2021/03/23 10:38:46;;;;;;;28.90;25.90;;;16.00;50.50;;;;;;5008170;28;20084;-52
2021/03/23 10:41:17;;;;;;;;;;;14.90;52.40;;;;;;4908517;29;20100;-50
2021/03/23 10:43:49;;;;;;;32.67;29.27;;;13.80;56.00;;;;;;4907642;29;20022;-49
2021/03/23 10:46:32;;;;;;;33.03;29.70;;;13.50;59.00;;;;;;4907194;29;20338;-53
2021/03/23 10:49:28;;;;;;;32.15;28.67;;;13.00;59.40;;;;;;4915297;29;20131;-48
2021/03/23 10:52:23;;;;;;;30.48;27.17;;;12.80;60.50;;;;;;4903570;29;20071;-50
2021/03/23 10:54:49;;;;;;;67.25;60.08;;;12.90;60.90;;;;;;4907312;29;20111;-54
2021/03/23 10:57:38;;;;;;;35.17;31.40;;;12.60;61.90;;;;;;4908421;29;20609;-49
2021/03/23 11:00:34;;;;;;;38.45;34.13;;;12.20;62.40;;;;;;4908029;29;20191;-51
2021/03/23 11:03:13;;;;;;;38.63;34.25;;;12.10;63.40;;;;;;4908168;29;20087;-52
2021/03/23 11:05:48;;;;;;;32.90;29.40;;;12.20;63.60;;;;;;4908165;29;20460;-52
2021/03/23 11:08:15;;;;;;;37.95;32.40;;;12.20;63.80;;;;;;4909007;29;20056;-54
2021/03/23 11:10:42;;;;;;;44.80;39.13;;;12.10;64.00;;;;;;4910497;29;20084;-52
2021/03/23 11:13:11;;;;;;;41.63;35.08;;;11.90;64.30;;;;;;4924116;29;20126;-45
2021/03/23 11:15:38;;;;;;;42.60;37.00;;;11.80;65.00;;;;;;4909202;28;20169;-50
2021/03/23 11:18:15;;;;;;;40.38;35.35;;;11.70;65.60;;;;;;5002733;28;20050;-52
2021/03/23 11:20:42;;;;;;;42.08;36.97;;;11.60;66.10;;;;;;5006733;28;20072;-50
2021/03/23 11:23:20;;;;;;;41.38;36.00;;;11.90;65.40;;;;;;5005729;28;20133;-49
2021/03/23 11:25:48;;;;;;;41.97;35.38;;;12.20;64.40;;;;;;5006793;28;20057;-49
2021/03/23 11:28:18;;;;;;;41.17;35.40;;;12.20;64.40;;;;;;5013749;28;20045;-48
2021/03/23 11:30:45;;;;;;;43.42;38.83;;;11.90;64.20;;;;;;5006196;28;20135;-47
2021/03/23 11:33:12;;;;;;;59.00;51.58;;;11.60;65.50;;;;;;5005946;28;20050;-48
2021/03/23 11:35:39;;;;;;;74.38;62.63;;;11.50;67.20;;;;;;5004901;28;20165;-48
2021/03/23 11:38:10;;;;;;;60.10;48.60;;;11.30;67.90;;;;;;5006019;28;20141;-55
2021/03/23 11:40:39;;;;;;;51.53;42.07;;;11.00;68.10;;;;;;5005509;28;20148;-48
2021/03/23 11:43:05;;;;;;;46.83;39.60;;;11.00;68.10;;;;;;5007162;28;20332;-49
2021/03/23 11:45:39;;;;;;;44.83;38.90;;;11.10;68.50;;;;;;5006736;28;20061;-49
2021/03/23 11:48:10;;;;;;;48.85;42.33;;;11.00;67.70;;;;;;5002027;28;20069;-51
2021/03/23 11:50:39;;;;;;;51.85;41.60;;;11.10;68.10;;;;;;5005762;28;20201;-52
2021/03/23 11:53:08;;;;;;;51.05;41.78;;;10.90;69.10;;;;;;5000839;28;20446;-51
2021/03/23 11:55:40;;;;;;;46.08;40.70;;;10.80;69.10;;;;;;5006659;28;20186;-50
2021/03/23 11:58:12;;;;;;;52.88;43.45;;;10.90;69.40;;;;;;5006358;28;20422;-52
2021/03/23 12:00:39;;;;;;;52.78;42.00;;;10.90;69.20;;;;;;5004570;28;20055;-45
2021/03/23 12:03:10;;;;;;;50.42;41.85;;;10.70;69.10;;;;;;5010634;28;20145;-53
2021/03/23 12:05:40;;;;;;;49.42;42.00;;;10.80;69.60;;;;;;5009802;28;20050;-50
2021/03/23 12:08:18;;;;;;;49.42;42.25;;;10.70;69.40;;;;;;5003593;28;20053;-52
2021/03/23 12:11:04;;;;;;;53.17;43.00;;;10.60;68.90;;;;;;5001727;28;20108;-48
2021/03/23 12:14:07;;;;;;;57.05;43.72;;;10.60;69.20;;;;;;5006818;28;20487;-49
2021/03/23 12:16:45;;;;;;;52.65;44.10;;;10.60;69.80;;;;;;5011717;28;20060;-47
2021/03/23 12:19:18;;;;;;;53.80;43.72;;;10.70;70.40;;;;;;5008245;28;20041;-51
2021/03/23 12:21:50;;;;;;;51.88;42.53;;;10.70;69.70;;;;;;4991978;28;20546;-52
2021/03/23 12:24:21;;;;;;;54.40;45.10;;;10.50;69.80;;;;;;5016899;28;20049;-50
2021/03/23 12:26:50;;;;;;;54.17;43.80;;;10.50;70.30;;;;;;5011435;28;20053;-48
2021/03/23 12:29:20;;;;;;;56.50;45.97;;;10.60;70.50;;;;;;5014380;28;20049;-49
2021/03/23 12:31:47;;;;;;;85.88;69.90;;;10.50;70.50;;;;;;5003383;28;20050;-48
2021/03/23 12:34:13;;;;;;;53.15;45.30;;;10.80;70.30;;;;;;4989866;28;20057;-48
2021/03/23 12:36:41;;;;;;;60.72;45.95;;;10.80;69.80;;;;;;5009160;28;20418;-50
2021/03/23 12:39:09;;;;;;;58.95;47.97;;;10.90;69.70;;;;;;5013818;28;20053;-50
2021/03/23 12:41:36;;;;;;;62.30;48.40;;;10.90;69.70;;;;;;5010273;28;20050;-50
2021/03/23 12:44:04;;;;;;;52.28;43.28;;;11.00;69.40;;;;;;5010498;28;20141;-49
2021/03/23 12:46:34;;;;;;;58.10;46.28;;;11.10;68.90;;;;;;5007165;28;20421;-49
2021/03/23 12:49:05;;;;;;;51.53;41.92;;;11.30;69.10;;;;;;5009712;28;20766;-48
2021/03/23 12:51:39;;;;;;;46.50;40.80;;;12.00;67.40;;;;;;4992636;28;20096;-51
2021/03/23 12:54:38;;;;;;;46.55;39.17;;;13.00;64.30;;;;;;5009901;28;20164;-53
2021/03/23 12:57:20;;;;;;;43.13;37.75;;;13.20;58.80;;;;;;5009784;28;20045;-50
2021/03/23 12:59:52;;;;;;;42.42;37.78;;;13.00;59.80;;;;;;5013178;28;20609;-53
2021/03/23 13:02:21;;;;;;;40.72;36.35;;;12.80;62.40;;;;;;5011106;28;20466;-46
2021/03/23 13:04:47;;;;;;;42.03;36.47;;;13.20;60.70;;;;;;5010521;28;20113;-50
2021/03/23 13:07:37;;;;;;;40.95;35.70;;;13.60;59.90;;;;;;5009996;28;20069;-53
2021/03/23 13:10:37;;;;;;;40.83;36.22;;;13.10;59.20;;;;;;4998801;28;20108;-47
2021/03/23 13:13:15;;;;;;;41.40;34.78;;;12.90;60.30;;;;;;5008841;28;20053;-49
2021/03/23 13:15:41;;;;;;;41.63;34.80;;;13.00;60.90;;;;;;5009522;28;20073;-54
2021/03/23 13:18:16;;;;;;;37.53;33.55;;;13.10;60.70;;;;;;5008978;28;20069;-42